Time;durP1;ratioP1;P1;durP2;ratioP2;P2;SDS_P1;SDS_P2;PMS_P1;PMS_P2;Temp;Humidity;BMP_temperature;BMP_pressure;BME280_temperature;BME280_humidity;BME280_pressure;Samples;Min_cycle;Max_cycle;Signal;HPM_P1;HPM_P2
2021/04/11 00:00:19;;;;;;;2.37;1.50;;;;;;;11.97;60.82;95864.34;4971271;28;21015;-71
2021/04/11 00:02:47;;;;;;;5.60;1.90;;;;;;;12.09;60.71;95878.19;4966267;28;21003;-70
2021/04/11 00:05:16;;;;;;;2.83;1.50;;;;;;;12.13;60.73;95872.59;4971092;28;20540;-70
2021/04/11 00:07:44;;;;;;;3.83;1.73;;;;;;;12.15;60.55;95878.50;4973396;28;20982;-70
2021/04/11 00:10:15;;;;;;;18.17;1.63;;;;;;;12.12;60.30;95864.88;4966989;28;20885;-68
2021/04/11 00:12:41;;;;;;;4.10;1.63;;;;;;;12.12;60.67;95873.56;4973083;28;20472;-69
2021/04/11 00:15:10;;;;;;;3.30;1.40;;;;;;;12.03;61.00;95871.69;4971691;28;20437;-70
2021/04/11 00:17:37;;;;;;;3.50;1.77;;;;;;;11.91;61.39;95872.63;4971859;28;20975;-69
2021/04/11 00:20:05;;;;;;;9.43;1.30;;;;;;;11.73;61.79;95860.22;4967468;28;20452;-69
2021/04/11 00:22:32;;;;;;;5.80;1.23;;;;;;;11.69;61.87;95875.25;4972106;28;20527;-69
2021/04/11 00:25:00;;;;;;;2.50;1.40;;;;;;;11.66;61.82;95865.09;4964797;28;20938;-70
2021/04/11 00:27:27;;;;;;;6.80;1.50;;;;;;;11.62;62.12;95868.88;4971084;28;20463;-71
2021/04/11 00:29:54;;;;;;;4.60;1.90;;;;;;;11.67;61.83;95858.09;4975437;28;20451;-70
2021/04/11 00:32:21;;;;;;;2.80;1.20;;;;;;;11.77;61.55;95853.81;4972602;28;20475;-70
2021/04/11 00:34:49;;;;;;;2.50;1.47;;;;;;;11.84;61.46;95857.63;4974980;28;20442;-69
2021/04/11 00:37:16;;;;;;;7.50;1.37;;;;;;;11.90;61.45;95865.78;4973280;28;20958;-72
2021/04/11 00:39:43;;;;;;;3.30;1.83;;;;;;;11.90;61.65;95868.38;4976361;28;20981;-69
2021/04/11 00:42:16;;;;;;;3.53;1.40;;;;;;;11.84;61.95;95862.81;4972894;28;20449;-71
2021/04/11 00:44:44;;;;;;;3.47;1.23;;;;;;;11.64;62.67;95850.50;4963084;28;20458;-70
2021/04/11 00:47:11;;;;;;;5.13;1.37;;;;;;;11.53;62.93;95850.47;4966674;28;20439;-70
2021/04/11 00:49:42;;;;;;;2.17;1.20;;;;;;;11.52;63.56;95856.63;4964257;28;20848;-69
2021/04/11 00:52:13;;;;;;;3.67;1.80;;;;;;;11.44;63.26;95846.81;4964812;28;20437;-70
2021/04/11 00:54:41;;;;;;;7.60;1.50;;;;;;;11.23;64.16;95840.66;4967042;28;20440;-69
2021/04/11 00:57:12;;;;;;;9.80;1.30;;;;;;;11.11;64.82;95844.19;4962976;28;20536;-68
2021/04/11 00:59:39;;;;;;;5.87;1.83;;;;;;;11.09;65.00;95842.63;4966018;28;20430;-68
2021/04/11 01:02:06;;;;;;;2.37;1.10;;;;;;;11.00;65.44;95838.13;4972260;28;20919;-69
2021/04/11 01:04:33;;;;;;;2.80;1.63;;;;;;;10.99;65.63;95837.28;4973188;28;20925;-69
2021/04/11 01:07:04;;;;;;;2.10;1.20;;;;;;;10.90;65.89;95827.56;4972553;28;20492;-68
2021/04/11 01:09:45;;;;;;;2.50;1.30;;;;;;;10.84;66.18;95825.44;4972746;28;20469;-69
2021/04/11 01:12:17;;;;;;;7.20;1.73;;;;;;;10.79;66.34;95819.75;4974238;28;20872;-69
2021/04/11 01:14:46;;;;;;;2.23;1.50;;;;;;;10.86;66.19;95815.75;4974655;28;20792;-68
2021/04/11 01:17:16;;;;;;;2.23;1.23;;;;;;;10.93;66.39;95811.75;4963002;28;20995;-70
2021/04/11 01:19:45;;;;;;;6.20;1.40;;;;;;;11.03;66.27;95807.47;4965870;28;20988;-68
2021/04/11 01:22:22;;;;;;;2.53;1.30;;;;;;;11.13;65.70;95807.59;4974436;28;20832;-68
2021/04/11 01:24:52;;;;;;;3.43;1.13;;;;;;;11.30;65.14;95799.31;4966221;28;20444;-68
2021/04/11 01:27:21;;;;;;;2.93;1.33;;;;;;;11.51;64.58;95802.84;4963122;28;20469;-70
2021/04/11 01:29:51;;;;;;;3.17;1.07;;;;;;;11.62;64.38;95801.09;4985788;28;20508;-71
2021/04/11 01:32:20;;;;;;;2.80;1.90;;;;;;;11.73;63.88;95803.69;4969173;28;20441;-72
2021/04/11 01:34:50;;;;;;;5.40;1.53;;;;;;;11.76;64.00;95808.66;4966290;28;20540;-71
2021/04/11 01:37:19;;;;;;;5.23;1.30;;;;;;;11.76;64.78;95806.06;4961905;28;20512;-70
2021/04/11 01:39:47;;;;;;;2.43;1.10;;;;;;;11.81;64.77;95810.91;4969531;28;20433;-69
2021/04/11 01:42:16;;;;;;;2.63;1.27;;;;;;;11.74;66.22;95810.56;4965667;28;20973;-71
2021/04/11 01:44:47;;;;;;;2.07;1.53;;;;;;;11.67;66.73;95808.56;4968224;28;20469;-71
2021/04/11 01:47:15;;;;;;;3.97;1.57;;;;;;;11.63;66.89;95807.97;4972086;28;21021;-70
2021/04/11 01:49:43;;;;;;;3.70;1.57;;;;;;;11.59;67.18;95806.56;4969054;28;20765;-71
2021/04/11 01:52:16;;;;;;;3.27;1.30;;;;;;;11.59;67.62;95801.34;4971093;28;20815;-69
2021/04/11 01:54:45;;;;;;;3.67;1.40;;;;;;;11.53;70.92;95801.78;4968926;28;20943;-71
2021/04/11 01:57:20;;;;;;;1.77;1.00;;;;;;;11.47;71.99;95799.66;4971291;28;20440;-69
2021/04/11 01:59:59;;;;;;;5.10;1.20;;;;;;;11.47;69.11;95797.06;4974546;28;20444;-69
2021/04/11 02:02:26;;;;;;;3.30;1.60;;;;;;;11.50;70.18;95802.03;4960347;28;20458;-69
2021/04/11 02:04:53;;;;;;;3.33;1.40;;;;;;;11.54;72.10;95798.25;4964104;28;20918;-69
2021/04/11 02:07:27;;;;;;;3.90;1.50;;;;;;;11.55;70.78;95799.06;4973019;28;20927;-69
2021/04/11 02:09:55;;;;;;;1.80;1.10;;;;;;;11.54;67.82;95794.78;4963073;28;20797;-71
2021/04/11 02:12:23;;;;;;;4.47;1.53;;;;;;;11.61;68.24;95793.38;4965554;28;21150;-71
2021/04/11 02:14:49;;;;;;;2.23;1.00;;;;;;;11.61;67.80;95794.22;4961023;28;20436;-69
2021/04/11 02:17:17;;;;;;;3.10;1.50;;;;;;;11.74;67.58;95784.50;4963894;28;20439;-69
2021/04/11 02:19:44;;;;;;;5.60;1.20;;;;;;;11.81;67.84;95790.88;4971678;28;20427;-69
2021/04/11 02:22:17;;;;;;;1.60;1.10;;;;;;;11.89;67.71;95783.28;4971778;28;21000;-68
2021/04/11 02:24:45;;;;;;;1.50;0.93;;;;;;;11.89;67.56;95787.66;4970230;28;20908;-69
2021/04/11 02:27:14;;;;;;;4.30;1.17;;;;;;;11.85;66.79;95784.47;4988310;28;21018;-70
2021/04/11 02:29:45;;;;;;;3.37;1.00;;;;;;;11.80;67.56;95781.41;4972608;28;20437;-69
2021/04/11 02:32:13;;;;;;;2.33;1.40;;;;;;;11.71;67.39;95779.50;4980773;28;20455;-71
2021/04/11 02:34:43;;;;;;;2.30;0.90;;;;;;;11.71;67.52;95782.13;4961939;28;20969;-69
2021/04/11 02:37:17;;;;;;;3.40;1.33;;;;;;;11.71;67.58;95768.28;4966646;28;20442;-69
2021/04/11 02:39:45;;;;;;;1.73;1.10;;;;;;;11.63;67.36;95774.06;4971601;28;20425;-69
2021/04/11 02:42:15;;;;;;;2.70;1.20;;;;;;;11.67;67.96;95775.50;4972109;28;20939;-72
2021/04/11 02:44:44;;;;;;;2.10;1.00;;;;;;;11.66;67.53;95781.69;4966661;28;20451;-69
2021/04/11 02:47:13;;;;;;;1.40;0.97;;;;;;;11.73;67.59;95766.38;4966809;28;20499;-68
2021/04/11 02:49:43;;;;;;;1.50;1.00;;;;;;;11.85;67.76;95775.81;4970593;28;21120;-71
2021/04/11 02:52:19;;;;;;;3.63;1.03;;;;;;;11.86;67.90;95765.25;4965159;28;20443;-69
2021/04/11 02:54:47;;;;;;;2.10;1.20;;;;;;;11.94;67.61;95770.69;4966848;28;21012;-69
2021/04/11 02:57:15;;;;;;;10.43;1.10;;;;;;;11.95;66.53;95759.31;4959517;28;20916;-72
2021/04/11 02:59:42;;;;;;;1.93;0.80;;;;;;;11.88;67.74;95762.53;4964317;28;20761;-70
2021/04/11 03:02:10;;;;;;;4.90;1.30;;;;;;;11.74;69.04;95763.66;4960408;28;20940;-72
2021/04/11 03:04:37;;;;;;;2.23;1.07;;;;;;;11.74;68.51;95763.66;4964473;28;20801;-71
2021/04/11 03:07:10;;;;;;;7.10;1.23;;;;;;;11.62;68.20;95759.41;4971233;28;20428;-70
2021/04/11 03:09:41;;;;;;;3.30;1.20;;;;;;;11.53;68.16;95752.28;4962576;28;20430;-70
2021/04/11 03:12:10;;;;;;;2.90;1.23;;;;;;;11.59;68.25;95749.22;4957257;28;20461;-70
2021/04/11 03:14:40;;;;;;;2.33;1.10;;;;;;;11.53;68.22;95746.22;4963112;28;20932;-72
2021/04/11 03:17:13;;;;;;;1.50;1.00;;;;;;;11.54;68.76;95750.47;4958661;28;20430;-73
2021/04/11 03:19:44;;;;;;;7.13;1.00;;;;;;;11.42;69.05;95744.47;4968245;28;20440;-72
2021/04/11 03:22:14;;;;;;;2.60;0.90;;;;;;;11.45;69.12;95746.84;4964279;28;20462;-72
2021/04/11 03:24:41;;;;;;;3.70;0.97;;;;;;;11.48;68.23;95751.81;4964040;28;20787;-70
2021/04/11 03:27:16;;;;;;;2.60;0.90;;;;;;;11.59;67.74;95754.44;4965521;28;20504;-70
2021/04/11 03:29:49;;;;;;;2.13;1.00;;;;;;;11.68;67.09;95753.69;4968411;28;20458;-69
2021/04/11 03:32:21;;;;;;;2.77;1.43;;;;;;;11.62;66.62;95753.38;4964112;28;20936;-71
2021/04/11 03:34:51;;;;;;;2.90;1.30;;;;;;;11.65;67.62;95748.72;4970827;28;20771;-69
2021/04/11 03:37:21;;;;;;;3.53;1.10;;;;;;;11.72;67.92;95749.88;4969787;28;20436;-68
2021/04/11 03:39:48;;;;;;;4.80;1.00;;;;;;;11.78;67.97;95748.59;4968877;28;20509;-69
2021/04/11 03:42:22;;;;;;;2.27;1.10;;;;;;;11.81;67.28;95749.16;4964458;28;20562;-69
2021/04/11 03:44:53;;;;;;;5.40;1.27;;;;;;;11.83;67.37;95749.03;4957230;28;20444;-70
2021/04/11 03:47:27;;;;;;;3.23;1.30;;;;;;;11.75;66.96;95748.81;4959922;28;20963;-72
2021/04/11 03:50:02;;;;;;;3.90;1.17;;;;;;;11.71;67.42;95743.00;4969812;28;20436;-69
2021/04/11 03:52:34;;;;;;;3.73;1.37;;;;;;;11.71;67.29;95750.84;4969191;28;20478;-71
2021/04/11 03:55:03;;;;;;;2.80;1.00;;;;;;;11.68;67.17;95748.47;4969703;28;20445;-72
2021/04/11 03:57:35;;;;;;;4.60;1.00;;;;;;;11.63;67.39;95750.63;4971500;28;20495;-69
2021/04/11 04:00:07;;;;;;;1.43;1.00;;;;;;;11.63;67.66;95755.84;4972058;28;20954;-69
2021/04/11 04:02:39;;;;;;;2.80;1.40;;;;;;;11.73;67.76;95754.16;4969032;28;20472;-72
2021/04/11 04:05:10;;;;;;;7.10;1.93;;;;;;;11.64;67.74;95754.88;4972097;28;20438;-71
2021/04/11 04:07:47;;;;;;;2.33;1.00;;;;;;;11.63;68.18;95766.25;4979022;28;20450;-70
2021/04/11 04:10:17;;;;;;;3.53;1.40;;;;;;;11.59;68.24;95757.03;4969046;28;20910;-70
2021/04/11 04:13:07;;;;;;;2.00;1.10;;;;;;;11.57;68.80;95751.06;4968952;28;20820;-70
2021/04/11 04:15:44;;;;;;;2.00;1.07;;;;;;;11.58;69.07;95763.22;4962462;28;20818;-71
2021/04/11 04:18:30;;;;;;;3.30;1.00;;;;;;;11.57;69.12;95768.50;4958544;28;20458;-71
2021/04/11 04:21:02;;;;;;;2.50;1.00;;;;;;;11.60;68.95;95756.09;4975333;28;20461;-71
2021/04/11 04:23:44;;;;;;;5.97;1.30;;;;;;;11.66;68.32;95760.81;4967746;28;20471;-73
2021/04/11 04:26:43;;;;;;;3.10;1.40;;;;;;;11.73;67.61;95759.38;4966762;28;20475;-71
2021/04/11 04:29:20;;;;;;;6.97;1.30;;;;;;;11.80;67.17;95757.94;4953430;28;20480;-72
2021/04/11 04:32:02;;;;;;;1.30;0.90;;;;;;;11.81;68.36;95764.81;4980898;28;20832;-71
2021/04/11 04:34:38;;;;;;;1.83;1.30;;;;;;;11.75;67.39;95760.09;4946060;28;20456;-72
2021/04/11 04:37:16;;;;;;;4.37;1.20;;;;;;;11.78;67.52;95754.59;4970583;28;20440;-69
2021/04/11 04:39:51;;;;;;;2.80;1.10;;;;;;;11.75;66.73;95767.06;4972517;28;20906;-70
2021/04/11 04:42:26;;;;;;;3.13;1.27;;;;;;;11.73;66.95;95756.78;4972568;28;20466;-70
2021/04/11 04:45:02;;;;;;;3.13;0.80;;;;;;;11.72;67.66;95756.88;4972293;28;20935;-69
2021/04/11 04:47:40;;;;;;;2.87;1.20;;;;;;;11.69;67.59;95757.13;4972286;28;20467;-70
2021/04/11 04:50:15;;;;;;;2.80;0.97;;;;;;;11.62;68.70;95762.00;4971809;28;20899;-71
2021/04/11 04:52:47;;;;;;;3.00;1.10;;;;;;;11.60;68.00;95766.50;4968838;28;20771;-72
2021/04/11 04:55:19;;;;;;;3.43;0.90;;;;;;;11.46;68.79;95756.31;4989586;28;20874;-72
2021/04/11 04:57:50;;;;;;;1.70;1.00;;;;;;;11.52;68.20;95758.44;4970666;28;20468;-69
2021/04/11 05:00:23;;;;;;;2.90;1.40;;;;;;;11.58;67.67;95758.00;4963177;28;20837;-72
2021/04/11 05:02:58;;;;;;;2.30;1.10;;;;;;;11.62;67.47;95763.78;4970529;28;21228;-70
2021/04/11 05:05:29;;;;;;;2.60;1.10;;;;;;;11.51;68.53;95767.22;4972879;28;20931;-69
2021/04/11 05:08:01;;;;;;;5.27;1.13;;;;;;;11.45;68.16;95752.06;4975457;28;20473;-70
2021/04/11 05:10:34;;;;;;;2.40;1.20;;;;;;;11.51;68.70;95772.44;4970459;28;20429;-69
2021/04/11 05:13:07;;;;;;;5.63;1.37;;;;;;;11.57;68.24;95764.09;4970872;28;20466;-69
2021/04/11 05:15:39;;;;;;;1.23;0.80;;;;;;;11.58;68.49;95768.44;4971787;28;20433;-72
2021/04/11 05:18:12;;;;;;;5.30;1.10;;;;;;;11.58;68.34;95765.81;4970370;28;20940;-71
2021/04/11 05:20:43;;;;;;;1.60;0.90;;;;;;;11.58;68.83;95763.22;4972696;28;20778;-70
2021/04/11 05:23:17;;;;;;;6.33;1.37;;;;;;;11.49;69.10;95757.84;4965400;28;21165;-72
2021/04/11 05:25:49;;;;;;;1.37;1.07;;;;;;;11.55;69.56;95762.59;4958256;28;20453;-73
2021/04/11 05:28:23;;;;;;;2.97;1.30;;;;;;;11.54;69.68;95766.97;4960868;28;20485;-71
2021/04/11 05:30:58;;;;;;;6.83;1.40;;;;;;;11.61;68.95;95770.78;4970228;28;21089;-70
2021/04/11 05:33:26;;;;;;;2.53;1.20;;;;;;;11.65;68.81;95774.78;4971336;28;21011;-70
2021/04/11 05:36:00;;;;;;;5.30;1.30;;;;;;;11.78;69.13;95775.47;4966840;28;20447;-73
2021/04/11 05:38:36;;;;;;;2.30;1.20;;;;;;;11.88;68.90;95773.81;4967043;28;20471;-71
2021/04/11 05:41:11;;;;;;;5.60;1.50;;;;;;;11.88;68.97;95776.41;4965431;28;20464;-73
2021/04/11 05:43:42;;;;;;;3.23;1.37;;;;;;;11.96;68.68;95775.78;4963236;28;21019;-70
2021/04/11 05:46:15;;;;;;;6.40;1.37;;;;;;;12.06;69.12;95779.31;4965919;28;20472;-73
2021/04/11 05:48:49;;;;;;;6.03;1.53;;;;;;;12.15;69.80;95774.16;4969911;28;21215;-70
2021/04/11 05:51:21;;;;;;;2.40;1.53;;;;;;;12.12;71.25;95769.22;4969392;28;20792;-72
2021/04/11 05:53:52;;;;;;;5.07;1.80;;;;;;;12.14;71.60;95762.06;4958889;28;20804;-72
2021/04/11 05:56:23;;;;;;;3.20;1.63;;;;;;;12.15;71.24;95768.94;4960254;28;20976;-74
2021/04/11 05:58:55;;;;;;;2.33;1.03;;;;;;;12.18;70.57;95771.31;4969213;28;20715;-74
2021/04/11 06:01:26;;;;;;;3.43;1.70;;;;;;;12.08;70.18;95770.41;4966369;28;20463;-72
2021/04/11 06:04:01;;;;;;;4.30;1.70;;;;;;;12.05;68.68;95764.59;4973097;28;20859;-72
2021/04/11 06:06:37;;;;;;;3.10;1.37;;;;;;;12.17;67.89;95767.06;4970084;28;20455;-71
2021/04/11 06:09:10;;;;;;;2.90;1.20;;;;;;;12.16;67.17;95767.19;4967162;28;20457;-72
2021/04/11 06:11:42;;;;;;;2.73;1.20;;;;;;;12.30;66.79;95774.72;4967092;28;20494;-69
2021/04/11 06:14:15;;;;;;;2.70;1.33;;;;;;;12.39;66.53;95756.53;4966521;28;21054;-71
2021/04/11 06:16:43;;;;;;;7.97;1.47;;;;;;;12.47;66.61;95763.72;4969481;28;20908;-69
2021/04/11 06:19:11;;;;;;;3.23;1.70;;;;;;;12.52;66.16;95772.81;4967317;28;20558;-71
2021/04/11 06:21:51;;;;;;;4.40;1.50;;;;;;;12.55;65.98;95771.72;4968860;28;20891;-69
2021/04/11 06:24:31;;;;;;;6.00;1.40;;;;;;;12.52;68.45;95761.56;4966392;28;21110;-71
2021/04/11 06:27:09;;;;;;;2.00;1.30;;;;;;;12.45;67.57;95755.19;4990358;28;20502;-71
2021/04/11 06:29:51;;;;;;;3.50;1.30;;;;;;;12.54;66.80;95770.91;4969248;28;20457;-73
2021/04/11 06:32:20;;;;;;;1.63;0.97;;;;;;;12.49;66.99;95767.84;4967001;28;20786;-71
2021/04/11 06:34:51;;;;;;;3.67;1.10;;;;;;;12.55;66.62;95766.50;4973014;28;20987;-71
2021/04/11 06:37:21;;;;;;;2.77;1.00;;;;;;;12.38;66.26;95775.72;4968573;28;20792;-71
2021/04/11 06:39:50;;;;;;;1.83;1.00;;;;;;;12.38;65.48;95770.50;4971619;28;20446;-74
2021/04/11 06:42:40;;;;;;;1.97;1.30;;;;;;;12.49;65.36;95767.84;4974055;28;20481;-69
2021/04/11 06:45:19;;;;;;;1.20;1.00;;;;;;;12.67;65.93;95774.13;4969781;28;20429;-74
2021/04/11 06:48:25;;;;;;;5.17;1.33;;;;;;;12.89;65.30;95766.16;4969909;28;20452;-71
2021/04/11 06:51:22;;;;;;;3.00;1.00;;;;;;;12.99;64.88;95762.69;4959930;28;20457;-69
2021/04/11 06:54:27;;;;;;;2.00;1.27;;;;;;;13.11;64.77;95760.81;4965191;28;20453;-70
2021/04/11 06:57:08;;;;;;;3.13;1.10;;;;;;;13.23;64.76;95767.63;4970950;28;20444;-72
2021/04/11 06:59:53;;;;;;;2.97;1.60;;;;;;;13.19;65.67;95763.63;4965775;28;20827;-73
2021/04/11 07:03:08;;;;;;;3.67;1.60;;;;;;;13.26;64.66;95764.72;4963559;28;20948;-71
2021/04/11 07:05:57;;;;;;;3.47;1.33;;;;;;;13.55;64.09;95760.44;4951716;28;20776;-73
2021/04/11 07:08:54;;;;;;;3.50;1.20;;;;;;;13.77;62.61;95762.81;4969502;28;20464;-74
2021/04/11 07:11:58;;;;;;;3.93;1.63;;;;;;;14.11;61.90;95767.56;4971852;28;20760;-73
2021/04/11 07:15:01;;;;;;;3.47;1.53;;;;;;;14.38;60.77;95766.94;4959789;28;20780;-71
2021/04/11 07:18:05;;;;;;;4.23;1.60;;;;;;;14.42;60.90;95768.28;4969418;28;20460;-72
2021/04/11 07:20:47;;;;;;;2.63;1.50;;;;;;;14.43;60.52;95769.94;4964606;28;20451;-73
2021/04/11 07:23:47;;;;;;;1.63;1.10;;;;;;;14.39;60.29;95765.97;4971378;28;21010;-70
2021/04/11 07:26:34;;;;;;;2.60;1.47;;;;;;;14.24;61.12;95759.47;4945160;28;20959;-73
2021/04/11 07:29:15;;;;;;;3.90;1.50;;;;;;;14.14;61.03;95769.09;4958915;28;20476;-73
2021/04/11 07:32:01;;;;;;;3.87;1.30;;;;;;;14.17;61.05;95774.06;4968038;28;20459;-73
2021/04/11 07:35:02;;;;;;;9.77;1.50;;;;;;;14.13;61.42;95778.72;4969569;28;20944;-74
2021/04/11 07:37:45;;;;;;;4.97;1.03;;;;;;;14.10;61.30;95765.09;4990204;28;20527;-73
2021/04/11 07:40:21;;;;;;;4.43;1.10;;;;;;;14.23;60.35;95758.66;4964495;28;20433;-74
2021/04/11 07:43:12;;;;;;;4.20;1.33;;;;;;;14.30;60.27;95764.19;4976899;28;20480;-75
2021/04/11 07:46:15;;;;;;;2.00;1.33;;;;;;;14.49;60.11;95748.44;4972802;28;20451;-74
2021/04/11 07:49:24;;;;;;;3.13;1.23;;;;;;;14.82;59.13;95766.34;4973115;28;21017;-72
2021/04/11 07:52:04;;;;;;;1.97;1.13;;;;;;;15.13;58.67;95757.28;4921496;28;21094;-72
2021/04/11 07:54:46;;;;;;;5.93;0.80;;;;;;;15.46;57.26;95762.84;4959176;28;20918;-74
2021/04/11 07:57:44;;;;;;;3.10;1.00;;;;;;;15.47;57.85;95761.06;4966688;28;20451;-76
2021/04/11 08:00:22;;;;;;;4.77;1.67;;;;;;;15.61;57.44;95760.56;4972596;28;20569;-74
2021/04/11 08:03:16;;;;;;;2.40;1.53;;;;;;;15.76;56.13;95769.63;4978230;28;20518;-75
2021/04/11 08:06:13;;;;;;;5.10;1.00;;;;;;;15.50;57.45;95766.00;4970029;28;20905;-75
2021/04/11 08:08:55;;;;;;;2.50;0.90;;;;;;;15.55;57.55;95774.28;4970943;28;20460;-74
2021/04/11 08:12:08;;;;;;;1.77;1.17;;;;;;;15.23;59.24;95763.31;4979026;28;20487;-76
2021/04/11 08:14:43;;;;;;;2.90;0.80;;;;;;;15.05;59.79;95751.94;4977045;28;20501;-73
2021/04/11 08:17:26;;;;;;;2.00;1.10;;;;;;;15.12;59.52;95760.88;4976355;28;20442;-73
2021/04/11 08:20:07;;;;;;;2.80;1.00;;;;;;;15.08;59.76;95757.72;4974983;28;21076;-73
2021/04/11 08:23:04;;;;;;;1.23;1.03;;;;;;;14.98;59.57;95756.09;4975813;28;20955;-73
2021/04/11 08:25:38;;;;;;;1.90;0.90;;;;;;;14.89;59.98;95765.63;4965448;28;20896;-74
2021/04/11 08:28:34;;;;;;;1.80;1.10;;;;;;;14.82;60.58;95764.53;4983701;28;20464;-73
2021/04/11 08:31:18;;;;;;;1.60;0.90;;;;;;;14.96;60.10;95760.66;4976248;28;20916;-73
2021/04/11 08:34:28;;;;;;;1.90;0.87;;;;;;;15.10;59.76;95761.00;4967943;28;20535;-74
2021/04/11 08:37:22;;;;;;;2.47;1.20;;;;;;;15.13;59.93;95763.38;4980846;28;20830;-72
2021/04/11 08:40:03;;;;;;;2.00;0.97;;;;;;;15.44;59.81;95763.94;4972045;28;20831;-71
2021/04/11 08:43:09;;;;;;;2.50;1.13;;;;;;;15.73;59.28;95759.38;4967497;28;21037;-72
2021/04/11 08:45:49;;;;;;;1.53;0.97;;;;;;;15.76;57.73;95756.50;4964176;28;20500;-72
2021/04/11 08:48:45;;;;;;;3.57;1.00;;;;;;;16.07;58.57;95749.94;4968680;28;20768;-72
2021/04/11 08:51:21;;;;;;;1.77;0.80;;;;;;;16.33;57.46;95753.44;4955130;28;20467;-74
2021/04/11 08:54:11;;;;;;;2.47;0.80;;;;;;;16.45;56.59;95752.28;4973135;28;20898;-72
2021/04/11 08:56:41;;;;;;;3.90;1.00;;;;;;;16.22;56.92;95751.06;4965551;28;20916;-70
2021/04/11 08:59:31;;;;;;;2.90;1.00;;;;;;;16.32;57.57;95747.38;4956712;28;20777;-71
2021/04/11 09:02:36;;;;;;;3.53;0.90;;;;;;;16.33;56.85;95754.28;4969607;28;20843;-70
2021/04/11 09:05:18;;;;;;;3.30;1.20;;;;;;;16.22;57.25;95745.81;4947765;28;20470;-70
2021/04/11 09:08:03;;;;;;;2.90;1.33;;;;;;;16.46;57.59;95753.94;4974293;28;20859;-70
2021/04/11 09:10:45;;;;;;;2.63;1.30;;;;;;;16.75;57.00;95747.47;4972806;28;21003;-69
2021/04/11 09:13:22;;;;;;;3.80;1.23;;;;;;;17.06;56.07;95747.81;4963298;28;20476;-71
2021/04/11 09:15:54;;;;;;;1.53;0.80;;;;;;;17.32;54.81;95746.84;4979116;28;20437;-71
2021/04/11 09:18:32;;;;;;;7.43;1.43;;;;;;;17.31;55.33;95742.53;4963708;28;21009;-70
2021/04/11 09:21:13;;;;;;;2.60;1.00;;;;;;;17.55;54.19;95740.88;4960068;28;20873;-71
2021/04/11 09:23:51;;;;;;;2.87;1.23;;;;;;;17.61;54.21;95737.63;4958208;28;20543;-70
2021/04/11 09:26:38;;;;;;;5.60;1.37;;;;;;;17.80;52.99;95733.91;4964718;28;20536;-70
2021/04/11 09:29:11;;;;;;;2.00;1.00;;;;;;;18.14;53.06;95738.09;4972857;28;20461;-70
2021/04/11 09:32:02;;;;;;;3.47;0.90;;;;;;;18.16;52.13;95741.44;4968501;28;20441;-69
2021/04/11 09:35:03;;;;;;;3.83;2.20;;;;;;;17.88;52.60;95740.03;4960381;28;20944;-70
2021/04/11 09:37:58;;;;;;;3.53;1.17;;;;;;;17.69;53.38;95727.13;4958176;28;20456;-70
2021/04/11 09:40:40;;;;;;;2.60;1.20;;;;;;;17.59;53.79;95721.19;4959832;28;20786;-73
2021/04/11 09:43:29;;;;;;;1.67;1.03;;;;;;;17.52;53.44;95729.03;4964359;28;20482;-72
2021/04/11 09:46:24;;;;;;;3.30;1.00;;;;;;;17.62;53.03;95730.56;4972852;28;20467;-72
2021/04/11 09:49:08;;;;;;;1.23;0.80;;;;;;;17.88;52.77;95733.94;4951567;28;20967;-71
2021/04/11 09:51:58;;;;;;;4.07;1.10;;;;;;;18.17;52.49;95731.69;4969834;28;20447;-71
2021/04/11 09:54:34;;;;;;;2.40;0.90;;;;;;;18.19;51.42;95733.19;4970398;28;20945;-70
2021/04/11 09:57:19;;;;;;;2.10;0.87;;;;;;;17.94;51.92;95728.88;4973532;28;20443;-72
2021/04/11 10:00:01;;;;;;;2.80;0.80;;;;;;;17.50;52.20;95729.19;4980388;28;20999;-72
2021/04/11 10:02:43;;;;;;;2.13;0.83;;;;;;;17.44;52.60;95729.81;4967222;28;20843;-69
2021/04/11 10:05:25;;;;;;;2.00;0.73;;;;;;;17.36;52.80;95734.22;4960835;28;20441;-74
2021/04/11 10:08:19;;;;;;;2.50;0.90;;;;;;;17.22;52.89;95730.34;4967120;28;20465;-70
2021/04/11 10:10:54;;;;;;;3.23;1.20;;;;;;;17.09;53.40;95737.81;4968699;28;21013;-74
2021/04/11 10:13:38;;;;;;;1.53;0.97;;;;;;;17.10;53.30;95738.66;4972155;28;20820;-70
2021/04/11 10:16:18;;;;;;;2.67;1.20;;;;;;;17.05;53.05;95731.22;4968888;28;20456;-70
2021/04/11 10:19:21;;;;;;;4.90;1.40;;;;;;;16.99;54.07;95731.00;4972209;28;20475;-70
2021/04/11 10:21:58;;;;;;;2.40;1.07;;;;;;;17.03;54.08;95729.72;4918576;28;20469;-72
2021/04/11 10:24:43;;;;;;;3.87;1.13;;;;;;;17.12;53.70;95723.53;4923492;28;20482;-73
2021/04/11 10:27:27;;;;;;;1.80;1.00;;;;;;;17.06;53.83;95730.25;4927932;28;20868;-69
2021/04/11 10:29:57;;;;;;;4.27;0.80;;;;;;;16.91;53.75;95730.97;4925127;28;20442;-70
2021/04/11 10:32:31;;;;;;;5.63;0.90;;;;;;;16.88;53.06;95728.66;4924492;28;20847;-71
2021/04/11 10:35:06;;;;;;;1.73;0.87;;;;;;;16.83;53.37;95731.75;4920850;28;20454;-71
2021/04/11 10:37:38;;;;;;;1.73;0.90;;;;;;;16.86;52.90;95731.41;4922789;28;20470;-70
2021/04/11 10:40:19;;;;;;;1.13;0.70;;;;;;;16.89;52.92;95722.41;4926341;28;20532;-69
2021/04/11 10:42:58;;;;;;;13.97;6.20;;;;;;;17.10;53.19;95733.38;4929890;28;20481;-71
2021/04/11 10:45:32;;;;;;;1.93;1.20;;;;;;;17.15;52.19;95731.94;4928871;28;20819;-70
2021/04/11 10:48:17;;;;;;;1.93;1.30;;;;;;;17.12;52.33;95734.06;4920209;28;20943;-70
2021/04/11 10:50:51;;;;;;;2.47;1.20;;;;;;;17.11;52.74;95730.63;4927401;28;20520;-72
2021/04/11 10:53:44;;;;;;;6.20;1.30;;;;;;;17.06;52.73;95732.03;4932604;28;20543;-71
2021/04/11 10:56:31;;;;;;;2.43;1.50;;;;;;;17.00;52.80;95733.50;4920983;28;20927;-71
2021/04/11 10:59:21;;;;;;;4.80;1.37;;;;;;;16.80;53.27;95736.47;4932921;28;20508;-69
2021/04/11 11:02:18;;;;;;;7.60;2.20;;;;;;;16.72;53.79;95728.53;4955601;28;20447;-72
2021/04/11 11:05:24;;;;;;;3.00;1.03;;;;;;;16.74;53.51;95731.84;4952290;28;20461;-71
2021/04/11 11:08:11;;;;;;;4.30;1.00;;;;;;;16.81;53.89;95722.34;4946590;28;20816;-70
2021/04/11 11:11:01;;;;;;;4.40;1.00;;;;;;;16.98;53.47;95732.00;4952997;28;21120;-71
2021/04/11 11:13:59;;;;;;;2.00;1.10;;;;;;;17.03;53.23;95732.34;4940758;28;20466;-72
2021/04/11 11:16:43;;;;;;;1.50;0.80;;;;;;;17.08;53.86;95733.53;4942122;28;20480;-71
2021/04/11 11:19:28;;;;;;;2.23;1.10;;;;;;;17.34;53.81;95722.00;4945378;28;20871;-71
2021/04/11 11:22:07;;;;;;;5.13;0.93;;;;;;;17.48;53.12;95725.06;4941172;28;20853;-72
2021/04/11 11:25:00;;;;;;;1.43;1.00;;;;;;;17.58;52.67;95723.16;4942342;28;20796;-69
2021/04/11 11:27:50;;;;;;;5.50;1.53;;;;;;;17.47;52.96;95721.63;4953219;28;20458;-71
2021/04/11 11:30:28;;;;;;;4.03;1.00;;;;;;;17.51;52.52;95716.88;4966417;28;20995;-72
2021/04/11 11:33:12;;;;;;;1.20;1.00;;;;;;;17.66;52.45;95719.56;4971165;28;20462;-71
2021/04/11 11:35:54;;;;;;;3.23;1.73;;;;;;;18.00;51.87;95719.50;4970109;28;20508;-70
2021/04/11 11:38:26;;;;;;;1.90;0.93;;;;;;;18.60;50.38;95708.56;4971852;28;20468;-70
2021/04/11 11:41:05;;;;;;;2.50;1.30;;;;;;;19.46;48.66;95713.00;4971037;28;20875;-69
2021/04/11 11:43:39;;;;;;;4.23;1.40;;;;;;;20.05;47.68;95709.78;4963574;28;20874;-71
2021/04/11 11:46:16;;;;;;;2.60;1.17;;;;;;;19.97;47.04;95707.16;4968528;28;20954;-71
2021/04/11 11:48:58;;;;;;;2.73;1.00;;;;;;;19.73;47.08;95702.03;4970344;28;20473;-71
2021/04/11 11:51:40;;;;;;;3.57;1.10;;;;;;;19.60;47.80;95696.47;4963143;28;20924;-70
2021/04/11 11:54:13;;;;;;;2.03;0.90;;;;;;;19.41;47.60;95696.88;4971295;28;20492;-70
2021/04/11 11:56:45;;;;;;;2.40;1.03;;;;;;;18.97;48.38;95695.66;4972043;28;20472;-71
2021/04/11 11:59:18;;;;;;;2.40;0.90;;;;;;;18.92;49.40;95695.31;4972038;28;20621;-72
2021/04/11 12:01:51;;;;;;;3.37;1.10;;;;;;;19.05;48.82;95700.91;4972504;28;20444;-69
2021/04/11 12:04:44;;;;;;;1.87;1.07;;;;;;;19.19;49.04;95694.09;4968174;28;20469;-70
2021/04/11 12:07:21;;;;;;;1.83;0.80;;;;;;;19.31;48.17;95692.78;4962884;28;20922;-70
2021/04/11 12:10:04;;;;;;;8.30;0.97;;;;;;;19.41;47.51;95693.41;4970818;28;20452;-69
2021/04/11 12:12:38;;;;;;;3.67;1.67;;;;;;;19.77;47.42;95691.94;4964082;28;20999;-71
2021/04/11 12:15:11;;;;;;;3.33;1.10;;;;;;;20.75;45.86;95678.69;4962620;28;20838;-71
2021/04/11 12:17:47;;;;;;;1.37;0.83;;;;;;;21.90;43.74;95687.72;4960796;28;20532;-71
2021/04/11 12:20:18;;;;;;;1.33;0.80;;;;;;;21.51;43.86;95695.97;4959787;28;20433;-70
2021/04/11 12:22:51;;;;;;;1.70;0.93;;;;;;;20.91;44.72;95679.41;4966635;28;20465;-71